Time;durP1;ratioP1;P1;durP2;ratioP2;P2;SDS_P1;SDS_P2;PMS_P1;PMS_P2;Temp;Humidity;BMP_temperature;BMP_pressure;BME280_temperature;BME280_humidity;BME280_pressure;Samples;Min_cycle;Max_cycle;Signal;HPM_P1;HPM_P2
2022/04/28 00:00:11;;;;;;;12.43;6.82;;;;;;;11.55;59.38;101508.09;4190723;28;20051;-60
2022/04/28 00:02:14;;;;;;;10.07;6.28;;;;;;;11.52;58.65;101507.19;4192587;28;20045;-60
2022/04/28 00:04:19;;;;;;;9.32;5.80;;;;;;;11.51;58.43;101507.13;4195611;28;20040;-61
2022/04/28 00:06:22;;;;;;;7.50;5.38;;;;;;;11.45;58.64;101502.66;4191292;28;20037;-60
2022/04/28 00:08:25;;;;;;;8.68;5.60;;;;;;;11.43;58.80;101508.63;4192758;28;20064;-61
2022/04/28 00:10:28;;;;;;;11.50;6.00;;;;;;;11.45;59.39;101502.66;4190324;28;20032;-60
2022/04/28 00:12:32;;;;;;;9.93;5.22;;;;;;;11.43;59.20;101503.44;4194605;28;20557;-60
2022/04/28 00:14:34;;;;;;;8.32;5.50;;;;;;;11.40;59.25;101512.03;4192052;28;20047;-61
2022/04/28 00:16:38;;;;;;;13.15;5.95;;;;;;;11.36;59.73;101507.59;4192900;28;20055;-61
2022/04/28 00:18:41;;;;;;;10.60;5.18;;;;;;;11.36;59.78;101507.59;4190057;28;20530;-61
2022/04/28 00:20:45;;;;;;;10.50;6.00;;;;;;;11.33;59.51;101511.00;4192855;28;20128;-61
2022/04/28 00:22:48;;;;;;;9.63;5.35;;;;;;;11.31;59.33;101520.47;4194171;28;20044;-61
2022/04/28 00:24:51;;;;;;;11.15;5.35;;;;;;;11.23;60.28;101508.97;4193435;28;20490;-62
2022/04/28 00:26:54;;;;;;;7.78;5.22;;;;;;;11.26;60.65;101508.19;4189703;28;20044;-61
2022/04/28 00:28:57;;;;;;;11.20;5.28;;;;;;;11.21;60.44;101514.97;4192997;28;20040;-61
2022/04/28 00:31:00;;;;;;;9.70;6.20;;;;;;;11.17;60.42;101512.28;4192704;28;20479;-61
2022/04/28 00:33:03;;;;;;;8.85;5.30;;;;;;;11.13;60.72;101514.75;4194694;28;20124;-61
2022/04/28 00:35:06;;;;;;;9.77;5.95;;;;;;;11.09;60.58;101518.97;4191729;28;20086;-61
2022/04/28 00:37:10;;;;;;;10.40;5.95;;;;;;;11.14;61.25;101514.81;4193306;28;20158;-61
2022/04/28 00:39:13;;;;;;;8.70;5.63;;;;;;;11.15;60.97;101516.53;4193568;28;20532;-61
2022/04/28 00:41:16;;;;;;;10.02;6.03;;;;;;;11.10;60.95;101520.75;4193514;28;20090;-61
2022/04/28 00:43:26;;;;;;;10.07;6.03;;;;;;;11.08;61.26;101509.44;4191994;28;20036;-61
2022/04/28 00:45:29;;;;;;;11.35;6.40;;;;;;;11.06;61.23;101512.81;4192131;28;20075;-61
2022/04/28 00:52:10;;;;;;;10.02;5.78;;;;;;;11.10;61.47;101512.06;4192584;28;20462;-61
2022/04/28 00:54:13;;;;;;;8.50;6.32;;;;;;;11.10;61.09;101520.75;4193176;28;20040;-61
2022/04/28 00:56:16;;;;;;;8.93;6.18;;;;;;;11.11;61.13;101522.53;4189686;28;20159;-61
2022/04/28 00:58:19;;;;;;;11.73;7.18;;;;;;;11.12;61.80;101518.19;4196394;28;20027;-61
2022/04/28 01:00:23;;;;;;;10.10;6.35;;;;;;;11.12;61.56;101519.06;4196880;28;20467;-61
2022/04/28 01:02:26;;;;;;;11.43;6.38;;;;;;;11.11;61.69;101516.41;4194482;28;20103;-61
2022/04/28 01:04:29;;;;;;;11.55;6.38;;;;;;;11.10;61.92;101515.53;4224319;28;20038;-61
2022/04/28 01:06:33;;;;;;;9.20;6.32;;;;;;;11.10;62.24;101517.28;4195337;28;20063;-61
2022/04/28 01:08:37;;;;;;;12.20;7.80;;;;;;;11.05;62.18;101521.44;4194188;28;20597;-61
2022/04/28 01:10:40;;;;;;;12.35;6.72;;;;;;;10.96;62.96;101522.06;4193418;28;20032;-61
2022/04/28 01:12:43;;;;;;;10.88;7.43;;;;;;;10.93;63.26;101524.56;4194937;28;20040;-61
2022/04/28 01:14:46;;;;;;;8.93;6.53;;;;;;;10.88;63.50;101518.34;4193472;28;20063;-61
2022/04/28 01:16:49;;;;;;;9.55;6.25;;;;;;;10.81;63.71;101518.16;4193842;28;20065;-67
2022/04/28 01:18:52;;;;;;;12.25;6.60;;;;;;;10.79;63.07;101527.66;4195147;28;20488;-61
2022/04/28 01:20:56;;;;;;;9.88;6.65;;;;;;;10.83;63.67;101528.59;4195315;28;20117;-61
2022/04/28 01:23:00;;;;;;;9.75;6.45;;;;;;;10.85;63.34;101521.75;4211753;28;20044;-61
2022/04/28 01:25:06;;;;;;;11.48;7.10;;;;;;;10.82;63.78;101524.25;4193575;28;20059;-61
2022/04/28 01:27:10;;;;;;;9.75;6.85;;;;;;;10.82;63.06;101524.25;4194967;28;20068;-61
2022/04/28 01:29:13;;;;;;;13.32;7.40;;;;;;;10.77;63.47;101524.09;4188819;28;20089;-61
2022/04/28 01:31:16;;;;;;;11.82;7.25;;;;;;;10.81;63.95;101525.09;4196553;28;20036;-61
2022/04/28 01:33:24;;;;;;;8.52;6.47;;;;;;;10.76;64.11;101529.25;4195936;28;20037;-61
2022/04/28 01:35:27;;;;;;;10.20;6.90;;;;;;;10.77;63.59;101526.69;4196291;28;20051;-61
2022/04/28 01:37:30;;;;;;;9.32;7.03;;;;;;;10.77;64.09;101531.91;4193614;28;20036;-61
2022/04/28 01:39:39;;;;;;;9.77;7.13;;;;;;;10.74;63.96;101526.59;4196010;28;20041;-61
2022/04/28 01:41:43;;;;;;;13.82;7.75;;;;;;;10.75;63.85;101527.50;4187144;28;20035;-61
2022/04/28 01:43:46;;;;;;;9.88;7.07;;;;;;;10.76;63.89;101534.47;4173315;28;20072;-61
2022/04/28 01:45:50;;;;;;;10.52;7.25;;;;;;;10.72;63.47;101528.28;4210911;28;20028;-61
2022/04/28 01:48:20;;;;;;;11.57;7.43;;;;;;;10.70;64.21;101526.47;4191140;28;20527;-61
2022/04/28 01:54:57;;;;;;;13.25;7.85;;;;;;;10.64;64.11;101538.47;4195445;28;20051;-61
2022/04/28 01:55:58;;;;;;;10.52;8.23;;;;;;;10.56;64.34;101536.47;4158666;28;20132;-61
2022/04/28 01:58:26;;;;;;;11.43;8.50;;;;;;;10.54;64.01;101538.09;4191757;28;20049;-61
2022/04/28 02:00:50;;;;;;;11.63;7.72;;;;;;;10.52;63.57;101539.78;4193556;28;20071;-61
2022/04/28 02:02:54;;;;;;;11.55;8.27;;;;;;;10.55;63.34;101538.16;4224439;28;20406;-61
2022/04/28 02:04:59;;;;;;;11.02;8.18;;;;;;;10.60;63.36;101538.28;4197038;28;20036;-61
2022/04/28 02:07:06;;;;;;;11.20;8.85;;;;;;;10.63;63.13;101543.59;4190252;28;20040;-61
2022/04/28 02:09:09;;;;;;;16.73;7.50;;;;;;;10.66;63.26;101533.31;4225812;28;20123;-61
2022/04/28 02:11:14;;;;;;;11.75;8.75;;;;;;;10.72;61.91;101538.69;4194357;28;20040;-61
2022/04/28 02:13:46;;;;;;;11.80;9.00;;;;;;;10.83;61.69;101537.31;4184672;28;20076;-61
2022/04/28 02:15:53;;;;;;;11.98;8.52;;;;;;;10.86;61.39;101540.84;4182056;28;20118;-61
2022/04/28 02:18:15;;;;;;;14.13;9.57;;;;;;;10.88;62.04;101539.16;4226982;28;20075;-61
2022/04/28 02:20:18;;;;;;;11.95;9.85;;;;;;;10.93;61.66;101537.59;4192403;28;20499;-61
2022/04/28 02:22:23;;;;;;;12.60;9.48;;;;;;;10.91;61.93;101539.28;4190855;28;20489;-61
2022/04/28 02:24:26;;;;;;;13.65;9.02;;;;;;;10.91;61.31;101534.94;4189809;28;20106;-61
2022/04/28 02:26:31;;;;;;;12.05;10.15;;;;;;;10.90;61.95;101540.97;4195170;28;20037;-61
2022/04/28 02:28:34;;;;;;;17.70;11.43;;;;;;;10.94;62.09;101544.56;4192468;28;20043;-61
2022/04/28 02:30:37;;;;;;;12.85;9.75;;;;;;;10.91;61.78;101539.28;4193687;28;20537;-61
2022/04/28 02:35:06;;;;;;;13.70;10.32;;;;;;;10.83;63.14;101542.53;4194851;28;20044;-61
2022/04/28 02:37:09;;;;;;;10.30;8.05;;;;;;;10.79;63.02;101540.66;4194114;28;20060;-61
2022/04/28 02:39:14;;;;;;;12.07;9.30;;;;;;;10.79;63.38;101535.44;4227700;28;20038;-61
2022/04/28 02:41:22;;;;;;;12.32;9.48;;;;;;;10.78;63.50;101549.28;4227666;28;20040;-61
2022/04/28 02:43:28;;;;;;;10.40;8.40;;;;;;;10.74;64.40;101550.00;4191620;28;20044;-61
2022/04/28 02:45:38;;;;;;;13.85;9.63;;;;;;;10.71;64.14;101543.84;4185553;28;20384;-61
2022/04/28 02:47:42;;;;;;;12.82;9.48;;;;;;;10.68;64.40;101546.34;4202279;28;20048;-61
2022/04/28 02:49:45;;;;;;;12.02;8.77;;;;;;;10.62;64.29;101547.03;4197934;28;20043;-61
2022/04/28 02:51:48;;;;;;;13.52;9.77;;;;;;;10.60;63.87;101543.50;4203650;28;20074;-61
2022/04/28 02:53:50;;;;;;;15.23;9.38;;;;;;;10.55;64.35;101542.47;4188398;28;20408;-61
2022/04/28 02:55:53;;;;;;;11.10;8.38;;;;;;;10.55;65.08;101548.56;4199775;28;20048;-61
2022/04/28 02:57:57;;;;;;;12.20;9.25;;;;;;;10.51;65.26;101546.69;4192829;28;20471;-61
2022/04/28 03:00:05;;;;;;;12.70;9.68;;;;;;;10.50;64.58;101542.34;4191111;28;20047;-61
2022/04/28 03:02:18;;;;;;;12.55;8.82;;;;;;;10.38;64.95;101549.72;4209424;28;20048;-61
2022/04/28 03:04:25;;;;;;;12.27;9.55;;;;;;;10.35;65.06;101550.50;4193629;28;20086;-61
2022/04/28 03:11:10;;;;;;;12.52;9.50;;;;;;;10.26;65.19;101557.97;4193930;28;20380;-61
2022/04/28 03:13:13;;;;;;;11.13;8.95;;;;;;;10.27;65.15;101554.56;4204967;28;20073;-61
2022/04/28 03:15:19;;;;;;;12.60;9.32;;;;;;;10.27;64.92;101559.75;4200847;28;20105;-61
2022/04/28 03:17:22;;;;;;;11.70;8.68;;;;;;;10.30;65.13;101558.13;4209014;28;20127;-61
2022/04/28 03:19:26;;;;;;;12.77;10.18;;;;;;;10.34;65.25;101555.66;4219556;28;20065;-61
2022/04/28 03:21:29;;;;;;;15.15;10.93;;;;;;;10.32;64.91;101558.16;4192023;28;20060;-61
2022/04/28 03:23:32;;;;;;;13.90;9.48;;;;;;;10.29;64.94;101564.19;4188277;28;20460;-61
2022/04/28 03:25:35;;;;;;;12.48;10.02;;;;;;;10.28;65.36;101559.81;4187197;28;20055;-61
2022/04/28 03:27:37;;;;;;;12.75;9.10;;;;;;;10.25;65.31;101561.41;4171461;28;20048;-61
2022/04/28 03:29:40;;;;;;;12.75;10.23;;;;;;;10.24;65.07;101557.94;4193558;28;20040;-61
2022/04/28 03:31:45;;;;;;;15.20;8.40;;;;;;;10.21;65.35;101554.34;4193334;28;20438;-61
2022/04/28 03:34:14;;;;;;;10.73;7.95;;;;;;;10.15;65.26;101555.03;4189503;28;20048;-61
2022/04/28 03:38:38;;;;;;;16.42;10.18;;;;;;;10.07;65.63;101562.53;4186998;28;20504;-61
2022/04/28 03:40:44;;;;;;;12.50;9.35;;;;;;;10.09;65.43;101563.50;4176262;28;20102;-61
2022/04/28 03:42:48;;;;;;;15.45;9.20;;;;;;;10.10;65.60;101562.69;4219299;28;20032;-61
2022/04/28 03:44:51;;;;;;;13.95;9.25;;;;;;;10.09;65.68;101565.19;4193605;28;20046;-61
2022/04/28 03:46:56;;;;;;;14.55;9.32;;;;;;;10.10;65.81;101572.16;4191109;28;20380;-60
2022/04/28 03:48:58;;;;;;;;;;;;;;;9.89;65.90;101573.19;4172584;28;20048;-60
2022/04/28 03:51:01;;;;;;;12.88;9.75;;;;;;;9.94;65.61;101566.47;4205838;28;19920;-61
2022/04/28 03:53:05;;;;;;;13.02;9.75;;;;;;;9.94;65.50;101570.75;4203812;28;20036;-61
2022/04/28 03:55:09;;;;;;;16.38;9.50;;;;;;;9.95;65.52;101569.94;4221978;28;20437;-61
2022/04/28 03:57:13;;;;;;;14.57;9.35;;;;;;;9.96;65.48;101569.13;4224077;28;20047;-61
2022/04/28 03:59:16;;;;;;;16.45;10.00;;;;;;;10.00;65.38;101570.97;4175468;28;20065;-61
2022/04/28 04:01:55;;;;;;;12.57;10.70;;;;;;;10.01;65.74;101575.34;4140834;28;20042;-60
2022/04/28 04:04:00;;;;;;;14.75;9.80;;;;;;;10.04;65.31;101582.34;4155819;28;20064;-61
2022/04/28 04:06:04;;;;;;;13.23;10.20;;;;;;;10.11;64.70;101584.34;4188351;28;20166;-61
2022/04/28 04:08:07;;;;;;;14.52;10.52;;;;;;;10.09;64.95;101586.88;4206513;28;20040;-61
2022/04/28 04:10:19;;;;;;;15.35;9.93;;;;;;;10.04;64.81;101593.63;4192159;28;20082;-61
2022/04/28 04:12:26;;;;;;;14.07;10.73;;;;;;;10.06;64.63;101589.38;4207746;28;20040;-61
2022/04/28 04:14:47;;;;;;;14.75;10.20;;;;;;;9.99;64.77;101590.00;4189822;28;20037;-60
2022/04/28 04:16:51;;;;;;;17.30;10.55;;;;;;;9.99;64.83;101591.69;4192902;28;20059;-61
2022/04/28 04:19:03;;;;;;;15.30;8.70;;;;;;;9.87;65.12;101589.56;4193385;28;20451;-61
2022/04/28 04:21:06;;;;;;;12.20;8.73;;;;;;;9.83;65.21;101592.88;4192652;28;20142;-60
2022/04/28 04:23:09;;;;;;;15.48;8.95;;;;;;;9.87;65.60;101597.34;4192898;28;20098;-60
2022/04/28 04:25:13;;;;;;;12.82;8.43;;;;;;;9.85;65.75;101599.00;4194906;28;20495;-60
2022/04/28 04:27:17;;;;;;;16.38;10.35;;;;;;;9.91;65.32;101596.63;4193531;28;20044;-60
2022/04/28 04:29:38;;;;;;;13.70;8.80;;;;;;;9.89;65.64;101600.91;4195575;28;20495;-60
2022/04/28 04:34:22;;;;;;;19.48;10.20;;;;;;;9.84;65.28;101610.22;4194458;28;20043;-60
2022/04/28 04:36:26;;;;;;;16.92;9.80;;;;;;;9.85;65.86;101601.63;4193677;28;20545;-60
2022/04/28 04:38:30;;;;;;;13.82;10.23;;;;;;;9.89;65.47;101608.69;4194409;28;20080;-60
2022/04/28 04:40:33;;;;;;;13.00;9.82;;;;;;;9.97;65.09;101612.41;4191783;28;20040;-60
2022/04/28 04:42:37;;;;;;;18.35;10.88;;;;;;;9.95;65.27;101614.09;4176038;28;20045;-60
2022/04/28 04:44:40;;;;;;;14.35;10.65;;;;;;;9.98;64.83;101619.41;4201707;28;20503;-60
2022/04/28 04:46:48;;;;;;;14.07;9.98;;;;;;;9.98;64.73;101613.31;4194863;28;20037;-60
2022/04/28 04:48:56;;;;;;;18.40;10.25;;;;;;;9.98;65.02;101619.41;4192369;28;20044;-60
2022/04/28 04:51:10;;;;;;;17.48;10.10;;;;;;;9.97;65.57;101622.81;4195219;28;20066;-60
2022/04/28 04:53:25;;;;;;;18.38;11.07;;;;;;;9.96;65.96;101621.94;4178577;28;20460;-60
2022/04/28 04:55:28;;;;;;;14.35;10.35;;;;;;;9.97;66.36;101628.00;4179021;28;20040;-60
2022/04/28 04:57:39;;;;;;;12.75;9.23;;;;;;;9.94;66.46;101634.00;4211065;28;20442;-60
2022/04/28 04:59:41;;;;;;;14.95;10.45;;;;;;;9.92;66.49;101632.16;4178562;28;20135;-60
2022/04/28 05:01:44;;;;;;;16.13;10.07;;;;;;;9.96;66.81;101632.34;4178845;28;20083;-60
2022/04/28 05:04:06;;;;;;;11.05;8.20;;;;;;;9.94;66.96;101633.09;4180137;28;20040;-60
2022/04/28 05:06:30;;;;;;;14.77;9.35;;;;;;;9.99;66.66;101638.44;4178556;28;20106;-60
2022/04/28 05:08:48;;;;;;;15.43;9.63;;;;;;;9.99;66.37;101639.34;4211772;28;20047;-60
2022/04/28 05:10:51;;;;;;;12.05;8.90;;;;;;;10.03;66.70;101642.94;4178920;28;20052;-60
2022/04/28 05:12:54;;;;;;;13.27;10.63;;;;;;;10.05;66.45;101638.69;4178859;28;20098;-60
2022/04/28 05:15:01;;;;;;;14.43;10.05;;;;;;;10.10;65.82;101640.63;4178917;28;20041;-60
2022/04/28 05:17:11;;;;;;;13.02;9.82;;;;;;;10.11;65.41;101652.78;4178833;28;20519;-61
2022/04/28 05:19:39;;;;;;;12.13;9.50;;;;;;;10.15;64.57;101645.97;4195039;28;20245;-60
2022/04/28 05:22:02;;;;;;;15.13;9.73;;;;;;;10.13;65.49;101651.13;4179937;28;20120;-61
2022/04/28 05:24:25;;;;;;;16.23;10.88;;;;;;;10.14;65.89;101657.19;4179621;28;20435;-61
2022/04/28 05:26:47;;;;;;;12.88;10.18;;;;;;;10.29;64.51;101662.03;4180154;28;20044;-60
2022/04/28 05:29:08;;;;;;;13.18;9.60;;;;;;;10.24;63.97;101661.00;4179669;28;20572;-61
2022/04/28 05:31:30;;;;;;;16.42;10.10;;;;;;;10.39;63.72;101663.28;4179963;28;20045;-60
2022/04/28 05:33:47;;;;;;;14.48;9.82;;;;;;;10.35;63.54;101661.41;4178698;28;20458;-61
2022/04/28 05:36:00;;;;;;;15.85;10.48;;;;;;;10.35;63.96;101662.28;4212013;28;20044;-61
2022/04/28 05:38:04;;;;;;;;;;;;;;;10.29;63.41;101673.34;4179023;28;20037;-61
2022/04/28 05:40:08;;;;;;;22.65;11.20;;;;;;;10.44;63.20;101670.41;4178215;28;19920;-61
2022/04/28 05:42:11;;;;;;;19.17;11.10;;;;;;;10.34;63.27;101665.72;4178748;28;20036;-61
2022/04/28 05:46:34;;;;;;;15.57;9.23;;;;;;;10.42;63.60;101668.59;4181603;28;20055;-61
2022/04/28 05:48:38;;;;;;;13.75;9.38;;;;;;;10.51;62.62;101679.28;4181437;28;20536;-61
2022/04/28 05:50:46;;;;;;;13.85;10.48;;;;;;;10.54;63.12;101678.50;4214847;28;20126;-61
2022/04/28 05:52:53;;;;;;;16.98;10.52;;;;;;;10.56;63.22;101680.34;4181540;28;20041;-60
2022/04/28 05:54:58;;;;;;;20.80;10.70;;;;;;;10.60;62.89;101683.91;4181560;28;20072;-60
2022/04/28 05:57:03;;;;;;;14.02;10.88;;;;;;;10.65;62.68;101680.63;4182723;28;20048;-60
2022/04/28 05:59:06;;;;;;;17.15;9.55;;;;;;;10.81;61.82;101679.44;4181165;28;20069;-60
2022/04/28 06:01:18;;;;;;;19.48;11.07;;;;;;;10.82;61.93;101689.03;4182779;28;20056;-60
2022/04/28 06:03:21;;;;;;;14.82;10.68;;;;;;;10.82;62.07;101689.03;4181467;28;20037;-60
2022/04/28 06:05:35;;;;;;;12.55;8.90;;;;;;;10.80;62.04;101688.06;4181494;28;20370;-61
2022/04/28 06:07:39;;;;;;;14.45;10.63;;;;;;;10.87;62.49;101686.56;4214609;28;20380;-61
2022/04/28 06:09:42;;;;;;;16.65;11.25;;;;;;;11.06;61.52;101690.63;4180871;28;20040;-61
2022/04/28 06:11:46;;;;;;;16.92;10.77;;;;;;;11.12;60.61;101690.81;4181350;28;20061;-61
2022/04/28 06:13:49;;;;;;;18.00;11.63;;;;;;;11.09;61.52;101690.75;4186493;28;20077;-61
2022/04/28 06:16:10;;;;;;;16.38;11.02;;;;;;;11.08;60.89;101694.19;4197744;28;20047;-61
2022/04/28 06:18:24;;;;;;;20.02;11.40;;;;;;;11.15;60.92;101700.47;4197746;28;20036;-61
2022/04/28 06:20:27;;;;;;;15.10;10.68;;;;;;;11.22;60.76;101701.56;4197359;28;20458;-61
2022/04/28 06:22:39;;;;;;;19.15;11.40;;;;;;;11.26;60.99;101700.81;4197830;28;20037;-61
2022/04/28 06:24:43;;;;;;;20.30;10.98;;;;;;;11.31;60.74;101705.31;4197561;28;20052;-61
2022/04/28 06:26:50;;;;;;;16.27;9.98;;;;;;;11.27;60.98;101710.38;4197585;28;20174;-61
2022/04/28 06:28:53;;;;;;;21.05;11.38;;;;;;;11.30;61.05;101700.06;4197166;28;20045;-61
2022/04/28 06:30:58;;;;;;;19.95;10.57;;;;;;;11.37;60.88;101707.22;4214223;28;20083;-60
2022/04/28 06:33:20;;;;;;;18.73;10.43;;;;;;;11.45;60.75;101710.09;4198514;28;20491;-61
2022/04/28 06:35:34;;;;;;;19.38;10.82;;;;;;;11.60;60.33;101714.88;4197432;28;20041;-61
2022/04/28 06:37:38;;;;;;;15.93;10.85;;;;;;;11.65;59.78;101708.06;4197490;28;20040;-61
2022/04/28 06:39:42;;;;;;;21.67;11.77;;;;;;;11.74;59.40;101713.56;4213871;28;20074;-60
2022/04/28 06:41:45;;;;;;;18.13;11.00;;;;;;;11.80;59.40;101713.75;4197276;28;20127;-61
2022/04/28 06:44:02;;;;;;;;;;;;;;;11.69;59.18;101721.22;4214523;28;20044;-61
2022/04/28 06:46:14;;;;;;;16.23;9.70;;;;;;;11.87;59.39;101713.09;4197302;28;19924;-61
2022/04/28 06:48:37;;;;;;;18.38;10.48;;;;;;;11.89;59.02;101715.72;4198224;28;20048;-61
2022/04/28 06:50:59;;;;;;;17.75;10.18;;;;;;;11.88;59.17;101717.47;4198389;28;20048;-61
2022/04/28 06:53:31;;;;;;;21.98;10.60;;;;;;;11.91;59.54;101720.97;4197164;28;20072;-61
2022/04/28 06:55:40;;;;;;;19.05;11.98;;;;;;;12.07;59.30;101725.81;4196152;28;20060;-61
2022/04/28 06:57:44;;;;;;;19.67;11.85;;;;;;;12.22;58.69;101720.16;4197141;28;20041;-61
2022/04/28 07:00:03;;;;;;;15.25;11.10;;;;;;;12.28;58.98;101722.03;4196920;28;20395;-61
2022/04/28 07:02:12;;;;;;;24.92;12.70;;;;;;;12.38;58.97;101714.53;4180455;28;20500;-60
2022/04/28 07:04:18;;;;;;;16.67;10.00;;;;;;;12.46;58.81;101712.13;4197105;28;20113;-61
2022/04/28 07:06:21;;;;;;;18.20;11.27;;;;;;;12.63;57.83;101720.41;4197055;28;20446;-60
2022/04/28 07:08:27;;;;;;;21.13;12.32;;;;;;;12.63;57.47;101720.41;4197097;28;20053;-61
2022/04/28 07:10:30;;;;;;;24.88;11.20;;;;;;;12.75;57.50;101732.88;4196759;28;20090;-61
2022/04/28 07:12:33;;;;;;;24.55;11.98;;;;;;;12.75;56.78;101720.69;4197868;28;20064;-61
2022/04/28 07:14:36;;;;;;;19.33;11.73;;;;;;;12.81;56.61;101725.19;4198059;28;20039;-61
2022/04/28 07:17:05;;;;;;;15.88;11.63;;;;;;;12.89;55.50;101726.28;4196752;28;20102;-61
2022/04/28 07:19:23;;;;;;;18.27;11.55;;;;;;;12.96;55.70;101729.03;4196359;28;20056;-61
2022/04/28 07:21:27;;;;;;;19.23;10.93;;;;;;;12.99;55.66;101721.28;4196731;28;20064;-61
2022/04/28 07:23:30;;;;;;;14.60;10.07;;;;;;;13.12;55.15;101725.97;4196686;28;20056;-61
2022/04/28 07:25:33;;;;;;;15.80;10.77;;;;;;;13.07;54.97;101722.38;4196614;28;20076;-61
2022/04/28 07:27:36;;;;;;;14.95;10.07;;;;;;;13.05;55.71;101724.03;4196525;28;20047;-61
2022/04/28 07:29:59;;;;;;;16.65;11.48;;;;;;;13.11;56.29;101726.78;4196304;28;20076;-61
2022/04/28 07:32:12;;;;;;;16.38;10.57;;;;;;;13.30;55.20;101722.00;4213357;28;20526;-61
2022/04/28 07:34:40;;;;;;;20.90;11.05;;;;;;;13.43;54.01;101725.00;4197618;28;20052;-61
2022/04/28 07:37:02;;;;;;;18.60;10.13;;;;;;;13.44;55.05;101728.47;4197499;28;20052;-61
2022/04/28 07:39:23;;;;;;;21.35;9.32;;;;;;;13.52;54.50;101729.53;4197278;28;20543;-61
2022/04/28 07:41:58;;;;;;;14.32;9.65;;;;;;;13.59;54.33;101734.06;4196956;28;20048;-61
2022/04/28 07:44:03;;;;;;;17.35;9.60;;;;;;;13.60;54.70;101730.56;4196375;28;20029;-61
2022/04/28 07:46:06;;;;;;;14.73;9.43;;;;;;;13.61;54.52;101727.13;4196230;28;20538;-61
2022/04/28 07:48:11;;;;;;;14.60;9.05;;;;;;;13.68;54.07;101732.47;4196144;28;20048;-61
2022/04/28 07:50:13;;;;;;;16.05;8.95;;;;;;;13.76;54.72;101728.31;4195954;28;20380;-61
2022/04/28 07:52:17;;;;;;;14.35;8.70;;;;;;;13.85;54.72;101728.50;4179677;28;20455;-61
2022/04/28 07:54:20;;;;;;;19.67;9.23;;;;;;;13.96;54.75;101732.22;4196070;28;20098;-61
2022/04/28 07:56:23;;;;;;;17.35;10.05;;;;;;;14.00;54.76;101727.06;4179538;28;20045;-61
2022/04/28 07:58:27;;;;;;;14.98;8.73;;;;;;;14.03;54.36;101729.72;4179378;28;20396;-61
2022/04/28 08:00:50;;;;;;;14.80;9.55;;;;;;;14.06;53.73;101732.41;4197346;28;20127;-61
2022/04/28 08:02:53;;;;;;;12.00;8.20;;;;;;;14.18;53.74;101731.75;4196136;28;20043;-61
2022/04/28 08:05:04;;;;;;;14.55;8.77;;;;;;;14.28;53.60;101732.00;4196475;28;20041;-61
2022/04/28 08:07:07;;;;;;;15.50;8.50;;;;;;;14.39;53.05;101736.56;4195981;28;20038;-61
2022/04/28 08:09:13;;;;;;;14.65;8.38;;;;;;;14.51;52.66;101734.16;4195616;28;20033;-61
2022/04/28 08:11:16;;;;;;;12.65;7.93;;;;;;;14.69;51.61;101733.66;4195933;28;20530;-61
2022/04/28 08:13:20;;;;;;;17.20;7.82;;;;;;;14.71;51.30;101737.16;4195005;28;20067;-61
2022/04/28 08:15:23;;;;;;;12.20;7.32;;;;;;;14.76;51.84;101729.38;4189928;28;20047;-61
2022/04/28 08:17:26;;;;;;;15.20;9.00;;;;;;;14.90;50.79;101735.75;4194486;28;20037;-61
2022/04/28 08:19:30;;;;;;;14.10;6.70;;;;;;;15.04;49.16;101732.47;4194310;28;20045;-61
2022/04/28 08:21:40;;;;;;;20.30;8.95;;;;;;;15.25;47.81;101735.44;4195638;28;20470;-60
2022/04/28 08:23:43;;;;;;;11.05;7.00;;;;;;;15.27;47.39;101744.19;4195990;28;20037;-61
2022/04/28 08:25:47;;;;;;;11.82;7.32;;;;;;;15.22;47.96;101739.75;4195836;28;20430;-61
2022/04/28 08:27:50;;;;;;;11.23;7.43;;;;;;;15.22;48.48;101737.16;4196022;28;20032;-61
2022/04/28 08:29:53;;;;;;;12.10;6.80;;;;;;;15.22;48.69;101740.63;4212110;28;20513;-61
2022/04/28 08:31:59;;;;;;;11.88;8.43;;;;;;;15.32;47.64;101742.53;4195842;28;20044;-61
2022/04/28 08:34:02;;;;;;;13.02;8.57;;;;;;;15.46;46.92;101737.50;4195979;28;20041;-61
2022/04/28 08:36:08;;;;;;;9.85;6.88;;;;;;;15.49;46.91;101734.94;4196131;28;20135;-60
2022/04/28 08:38:17;;;;;;;16.13;6.97;;;;;;;15.35;48.69;101737.34;4195798;28;20043;-61
2022/04/28 08:40:20;;;;;;;13.13;7.10;;;;;;;15.39;48.21;101740.00;4195381;28;20041;-61
2022/04/28 08:42:27;;;;;;;10.27;7.80;;;;;;;15.51;48.93;101745.44;4195773;28;20072;-61
2022/04/28 08:44:44;;;;;;;9.57;6.07;;;;;;;15.54;47.98;101748.09;4195718;28;20767;-61
2022/04/28 08:47:11;;;;;;;9.57;6.60;;;;;;;15.64;48.09;101750.00;4186524;28;20056;-61
2022/04/28 08:49:16;;;;;;;11.43;7.38;;;;;;;15.66;47.13;101744.75;4195402;28;20045;-61
2022/04/28 08:51:25;;;;;;;9.95;7.00;;;;;;;15.79;47.48;101744.09;4195619;28;20110;-61
2022/04/28 08:53:33;;;;;;;15.30;7.30;;;;;;;15.79;46.93;101749.34;4195492;28;20072;-61
2022/04/28 08:55:35;;;;;;;13.98;6.72;;;;;;;15.76;46.64;101743.16;4212311;28;20131;-61
2022/04/28 08:57:39;;;;;;;10.82;7.20;;;;;;;15.87;46.95;101741.56;4195480;28;20499;-61
2022/04/28 08:59:44;;;;;;;10.27;6.53;;;;;;;15.97;47.24;101746.06;4195573;28;20177;-61
2022/04/28 09:01:47;;;;;;;9.52;6.72;;;;;;;16.14;46.17;101750.66;4178996;28;20500;-61
2022/04/28 09:04:23;;;;;;;9.10;6.13;;;;;;;16.38;44.94;101745.69;4196789;28;20052;-61
2022/04/28 09:06:59;;;;;;;12.15;7.03;;;;;;;16.55;44.73;101745.00;4196694;28;20049;-61
2022/04/28 09:09:35;;;;;;;8.05;6.00;;;;;;;16.57;45.18;101743.25;4187770;28;20561;-61
2022/04/28 09:11:59;;;;;;;9.85;5.40;;;;;;;16.69;45.75;101746.00;4196641;28;20048;-61
2022/04/28 09:14:20;;;;;;;9.25;6.15;;;;;;;16.82;44.80;101741.75;4196732;28;20041;-60
2022/04/28 09:16:25;;;;;;;12.15;7.40;;;;;;;17.10;43.43;101734.13;4178772;28;20152;-60
2022/04/28 09:18:30;;;;;;;13.90;7.15;;;;;;;17.21;42.39;101727.19;4180093;28;20443;-61
2022/04/28 09:20:35;;;;;;;12.98;6.97;;;;;;;17.15;42.71;101732.41;4215202;28;20137;-61
2022/04/28 09:22:44;;;;;;;14.00;6.88;;;;;;;17.22;42.45;101728.97;4215378;28;20051;-61
2022/04/28 09:24:59;;;;;;;14.30;6.97;;;;;;;17.17;43.10;101732.41;4181935;28;20421;-60
2022/04/28 09:27:04;;;;;;;8.52;5.55;;;;;;;17.15;42.95;101734.16;4198632;28;20128;-61
2022/04/28 09:29:12;;;;;;;10.85;5.72;;;;;;;17.17;42.45;101732.41;4198175;28;20114;-60
2022/04/28 09:31:18;;;;;;;9.95;6.03;;;;;;;17.29;41.49;101727.25;4198387;28;20051;-61
2022/04/28 09:33:30;;;;;;;9.50;7.03;;;;;;;17.36;41.45;101726.44;4198548;28;20094;-61
2022/04/28 09:35:54;;;;;;;9.93;6.45;;;;;;;17.33;41.71;101723.75;4198336;28;20039;-61
2022/04/28 09:38:21;;;;;;;10.48;5.63;;;;;;;17.30;41.60;101718.50;4193638;28;20056;-61
2022/04/28 09:43:07;;;;;;;13.65;6.78;;;;;;;17.66;41.40;101722.22;4198302;28;20036;-61
2022/04/28 09:45:14;;;;;;;10.85;5.88;;;;;;;17.72;41.23;101719.59;4198296;28;20213;-61
2022/04/28 09:47:24;;;;;;;10.65;6.07;;;;;;;17.79;41.83;101720.53;4198361;28;20106;-61
2022/04/28 09:49:30;;;;;;;8.23;5.53;;;;;;;17.85;41.60;101715.28;4197841;28;20044;-61
2022/04/28 09:51:59;;;;;;;7.20;4.75;;;;;;;17.89;41.64;101717.06;4199661;28;20054;-61
2022/04/28 09:54:12;;;;;;;8.43;5.43;;;;;;;17.79;41.07;101712.63;4197963;28;20192;-61
2022/04/28 09:56:26;;;;;;;7.85;5.25;;;;;;;17.89;42.19;101711.81;4198115;28;20036;-61
2022/04/28 09:58:43;;;;;;;13.05;5.90;;;;;;;18.22;40.61;101717.19;4214735;28;20564;-61
2022/04/28 10:00:46;;;;;;;10.50;5.85;;;;;;;18.30;40.24;101712.84;4181343;28;20049;-61
2022/04/28 10:02:50;;;;;;;14.00;6.40;;;;;;;18.38;38.23;101716.34;4197979;28;20044;-61
2022/04/28 10:04:55;;;;;;;7.40;5.28;;;;;;;18.52;36.89;101712.88;4197911;28;20110;-61
2022/04/28 10:07:14;;;;;;;7.95;4.68;;;;;;;18.36;37.18;101718.13;4197970;28;20117;-61
2022/04/28 10:09:18;;;;;;;7.80;4.80;;;;;;;18.28;38.41;101714.56;4181060;28;20484;-61
2022/04/28 10:11:27;;;;;;;4.72;3.80;;;;;;;18.30;39.09;101715.47;4214611;28;20473;-61
2022/04/28 10:13:32;;;;;;;6.53;4.00;;;;;;;18.43;38.92;101709.34;4197855;28;20135;-61